sensor_id;sensor_type;location;lat;lon;timestamp;temperature;humidity
27439;DHT22;14887;51.252;7.470;2023-11-19T00:00:33;7.80;99.90
27439;DHT22;14887;51.252;7.470;2023-11-19T00:02:59;7.90;99.90
27439;DHT22;14887;51.252;7.470;2023-11-19T00:05:24;7.90;99.90
27439;DHT22;14887;51.252;7.470;2023-11-19T00:07:50;7.90;99.90
27439;DHT22;14887;51.252;7.470;2023-11-19T00:10:17;8.00;99.90
27439;DHT22;14887;51.252;7.470;2023-11-19T00:12:47;8.00;99.90
27439;DHT22;14887;51.252;7.470;2023-11-19T00:15:14;8.10;99.90
27439;DHT22;14887;51.252;7.470;2023-11-19T00:17:44;8.10;99.90
27439;DHT22;14887;51.252;7.470;2023-11-19T00:20:11;8.10;99.90
27439;DHT22;14887;51.252;7.470;2023-11-19T00:22:37;8.10;99.90
27439;DHT22;14887;51.252;7.470;2023-11-19T00:25:04;8.20;99.90
27439;DHT22;14887;51.252;7.470;2023-11-19T00:27:31;8.20;99.90
27439;DHT22;14887;51.252;7.470;2023-11-19T00:30:00;8.20;99.90
27439;DHT22;14887;51.252;7.470;2023-11-19T00:32:26;8.30;99.90
27439;DHT22;14887;51.252;7.470;2023-11-19T00:34:52;8.30;99.90
27439;DHT22;14887;51.252;7.470;2023-11-19T00:37:19;8.40;99.90
27439;DHT22;14887;51.252;7.470;2023-11-19T00:39:44;8.40;99.90
27439;DHT22;14887;51.252;7.470;2023-11-19T00:42:11;8.40;99.90
27439;DHT22;14887;51.252;7.470;2023-11-19T00:44:40;8.40;99.90
27439;DHT22;14887;51.252;7.470;2023-11-19T00:47:06;8.40;99.90
27439;DHT22;14887;51.252;7.470;2023-11-19T00:49:33;8.50;99.90
27439;DHT22;14887;51.252;7.470;2023-11-19T00:51:59;8.60;99.90
27439;DHT22;14887;51.252;7.470;2023-11-19T00:54:25;8.50;99.90
27439;DHT22;14887;51.252;7.470;2023-11-19T00:57:11;8.60;99.90
27439;DHT22;14887;51.252;7.470;2023-11-19T00:59:37;8.60;99.90
27439;DHT22;14887;51.252;7.470;2023-11-19T01:02:03;8.60;99.90
27439;DHT22;14887;51.252;7.470;2023-11-19T01:04:35;8.60;99.90
27439;DHT22;14887;51.252;7.470;2023-11-19T01:07:04;8.70;99.90
27439;DHT22;14887;51.252;7.470;2023-11-19T01:09:38;8.70;99.90
27439;DHT22;14887;51.252;7.470;2023-11-19T01:12:04;8.70;99.90
27439;DHT22;14887;51.252;7.470;2023-11-19T01:14:33;8.70;99.90
27439;DHT22;14887;51.252;7.470;2023-11-19T01:16:58;8.70;99.90
27439;DHT22;14887;51.252;7.470;2023-11-19T01:19:24;8.70;99.90
27439;DHT22;14887;51.252;7.470;2023-11-19T01:21:50;8.70;99.90
27439;DHT22;14887;51.252;7.470;2023-11-19T01:24:16;8.90;99.90
27439;DHT22;14887;51.252;7.470;2023-11-19T01:26:42;8.80;99.90
27439;DHT22;14887;51.252;7.470;2023-11-19T01:29:11;8.80;99.90
27439;DHT22;14887;51.252;7.470;2023-11-19T01:31:42;8.80;99.90
27439;DHT22;14887;51.252;7.470;2023-11-19T01:34:08;8.80;99.90
27439;DHT22;14887;51.252;7.470;2023-11-19T01:36:34;8.90;99.90
27439;DHT22;14887;51.252;7.470;2023-11-19T01:39:00;8.80;99.90
27439;DHT22;14887;51.252;7.470;2023-11-19T01:41:26;8.80;99.90
27439;DHT22;14887;51.252;7.470;2023-11-19T01:43:52;8.80;99.90
27439;DHT22;14887;51.252;7.470;2023-11-19T01:46:17;8.90;99.90
27439;DHT22;14887;51.252;7.470;2023-11-19T01:48:45;8.90;99.90
27439;DHT22;14887;51.252;7.470;2023-11-19T01:51:12;8.90;99.90
27439;DHT22;14887;51.252;7.470;2023-11-19T01:53:38;8.90;99.90
27439;DHT22;14887;51.252;7.470;2023-11-19T01:56:06;9.00;99.90
27439;DHT22;14887;51.252;7.470;2023-11-19T01:58:35;9.10;99.90
27439;DHT22;14887;51.252;7.470;2023-11-19T02:01:01;9.10;99.90
27439;DHT22;14887;51.252;7.470;2023-11-19T02:03:31;9.10;99.90
27439;DHT22;14887;51.252;7.470;2023-11-19T02:05:59;9.10;99.90
27439;DHT22;14887;51.252;7.470;2023-11-19T02:08:24;9.40;99.90
27439;DHT22;14887;51.252;7.470;2023-11-19T02:10:50;9.20;99.90
27439;DHT22;14887;51.252;7.470;2023-11-19T02:13:16;9.30;99.90
27439;DHT22;14887;51.252;7.470;2023-11-19T02:15:42;9.40;99.90
27439;DHT22;14887;51.252;7.470;2023-11-19T02:20:49;9.50;99.90
27439;DHT22;14887;51.252;7.470;2023-11-19T02:23:15;9.60;99.90
27439;DHT22;14887;51.252;7.470;2023-11-19T02:25:41;9.70;99.90
27439;DHT22;14887;51.252;7.470;2023-11-19T02:28:07;9.80;99.90
27439;DHT22;14887;51.252;7.470;2023-11-19T02:30:33;9.80;99.90
27439;DHT22;14887;51.252;7.470;2023-11-19T02:32:59;9.90;99.90
27439;DHT22;14887;51.252;7.470;2023-11-19T02:35:29;9.90;99.90
27439;DHT22;14887;51.252;7.470;2023-11-19T02:37:57;9.90;99.90
27439;DHT22;14887;51.252;7.470;2023-11-19T02:40:23;10.00;99.90
27439;DHT22;14887;51.252;7.470;2023-11-19T02:42:53;10.00;99.90
27439;DHT22;14887;51.252;7.470;2023-11-19T02:45:19;10.00;99.90
27439;DHT22;14887;51.252;7.470;2023-11-19T02:47:45;10.00;99.90
27439;DHT22;14887;51.252;7.470;2023-11-19T02:50:11;10.00;99.90
27439;DHT22;14887;51.252;7.470;2023-11-19T02:52:41;10.00;99.90
27439;DHT22;14887;51.252;7.470;2023-11-19T02:55:07;10.10;99.90
27439;DHT22;14887;51.252;7.470;2023-11-19T02:57:41;10.10;99.90
27439;DHT22;14887;51.252;7.470;2023-11-19T03:00:20;10.10;99.90
27439;DHT22;14887;51.252;7.470;2023-11-19T03:02:51;10.20;99.90
27439;DHT22;14887;51.252;7.470;2023-11-19T03:05:26;10.20;99.90
27439;DHT22;14887;51.252;7.470;2023-11-19T03:07:52;10.20;99.90
27439;DHT22;14887;51.252;7.470;2023-11-19T03:10:17;10.20;99.90
27439;DHT22;14887;51.252;7.470;2023-11-19T03:12:44;10.20;99.90
27439;DHT22;14887;51.252;7.470;2023-11-19T03:15:13;10.20;99.90
27439;DHT22;14887;51.252;7.470;2023-11-19T03:17:39;10.20;99.90
27439;DHT22;14887;51.252;7.470;2023-11-19T03:20:07;10.30;99.90
27439;DHT22;14887;51.252;7.470;2023-11-19T03:22:36;10.30;99.90
27439;DHT22;14887;51.252;7.470;2023-11-19T03:25:02;10.30;99.90
27439;DHT22;14887;51.252;7.470;2023-11-19T03:27:27;10.30;99.90
27439;DHT22;14887;51.252;7.470;2023-11-19T03:29:53;10.30;99.90
27439;DHT22;14887;51.252;7.470;2023-11-19T03:32:19;10.30;99.90
27439;DHT22;14887;51.252;7.470;2023-11-19T03:34:45;10.30;99.90
27439;DHT22;14887;51.252;7.470;2023-11-19T03:37:10;10.30;99.90
27439;DHT22;14887;51.252;7.470;2023-11-19T03:39:37;10.30;99.90
27439;DHT22;14887;51.252;7.470;2023-11-19T03:42:03;10.20;99.90
27439;DHT22;14887;51.252;7.470;2023-11-19T03:44:28;10.20;99.90
27439;DHT22;14887;51.252;7.470;2023-11-19T03:46:54;10.30;99.90
27439;DHT22;14887;51.252;7.470;2023-11-19T03:49:20;10.40;99.90
27439;DHT22;14887;51.252;7.470;2023-11-19T03:51:46;10.20;99.90
27439;DHT22;14887;51.252;7.470;2023-11-19T03:54:12;10.30;99.90
27439;DHT22;14887;51.252;7.470;2023-11-19T03:56:38;10.30;99.90
27439;DHT22;14887;51.252;7.470;2023-11-19T03:59:03;10.00;99.90
27439;DHT22;14887;51.252;7.470;2023-11-19T04:01:29;10.20;99.90
27439;DHT22;14887;51.252;7.470;2023-11-19T04:03:54;10.20;99.90
27439;DHT22;14887;51.252;7.470;2023-11-19T04:06:21;10.30;99.90
27439;DHT22;14887;51.252;7.470;2023-11-19T04:08:47;10.20;99.90
27439;DHT22;14887;51.252;7.470;2023-11-19T04:11:12;10.30;99.90
27439;DHT22;14887;51.252;7.470;2023-11-19T04:13:38;10.20;99.90
27439;DHT22;14887;51.252;7.470;2023-11-19T04:16:04;10.20;99.90
27439;DHT22;14887;51.252;7.470;2023-11-19T04:18:30;10.20;99.90
27439;DHT22;14887;51.252;7.470;2023-11-19T04:20:57;10.20;99.90
27439;DHT22;14887;51.252;7.470;2023-11-19T04:23:24;10.20;99.90
27439;DHT22;14887;51.252;7.470;2023-11-19T04:25:50;10.20;99.90
27439;DHT22;14887;51.252;7.470;2023-11-19T04:28:15;10.10;99.90
27439;DHT22;14887;51.252;7.470;2023-11-19T04:30:41;10.10;99.90
27439;DHT22;14887;51.252;7.470;2023-11-19T04:33:07;10.10;99.90
27439;DHT22;14887;51.252;7.470;2023-11-19T04:35:32;10.10;99.90
27439;DHT22;14887;51.252;7.470;2023-11-19T04:37:58;10.10;99.90
27439;DHT22;14887;51.252;7.470;2023-11-19T04:40:23;10.10;99.90
27439;DHT22;14887;51.252;7.470;2023-11-19T04:42:49;10.00;99.90
27439;DHT22;14887;51.252;7.470;2023-11-19T04:45:15;10.00;99.90
27439;DHT22;14887;51.252;7.470;2023-11-19T04:47:44;10.00;99.90
27439;DHT22;14887;51.252;7.470;2023-11-19T04:50:10;10.00;99.90
27439;DHT22;14887;51.252;7.470;2023-11-19T04:52:39;9.90;99.90
27439;DHT22;14887;51.252;7.470;2023-11-19T04:55:10;10.00;99.90
27439;DHT22;14887;51.252;7.470;2023-11-19T04:57:37;10.00;99.90
27439;DHT22;14887;51.252;7.470;2023-11-19T05:00:03;10.00;99.90
27439;DHT22;14887;51.252;7.470;2023-11-19T05:02:30;9.90;99.90
27439;DHT22;14887;51.252;7.470;2023-11-19T05:04:56;9.90;99.90
27439;DHT22;14887;51.252;7.470;2023-11-19T05:07:22;9.90;99.90
27439;DHT22;14887;51.252;7.470;2023-11-19T05:09:47;9.90;99.90
27439;DHT22;14887;51.252;7.470;2023-11-19T05:12:13;9.90;99.90
27439;DHT22;14887;51.252;7.470;2023-11-19T05:14:39;9.90;99.90
27439;DHT22;14887;51.252;7.470;2023-11-19T05:17:05;9.90;99.90
27439;DHT22;14887;51.252;7.470;2023-11-19T05:19:30;9.90;99.90
27439;DHT22;14887;51.252;7.470;2023-11-19T05:21:56;9.90;99.90
27439;DHT22;14887;51.252;7.470;2023-11-19T05:24:22;10.00;99.90
27439;DHT22;14887;51.252;7.470;2023-11-19T05:26:48;9.90;99.90
27439;DHT22;14887;51.252;7.470;2023-11-19T05:29:16;9.90;99.90
27439;DHT22;14887;51.252;7.470;2023-11-19T05:31:42;9.90;99.90
27439;DHT22;14887;51.252;7.470;2023-11-19T05:34:07;9.90;99.90
27439;DHT22;14887;51.252;7.470;2023-11-19T05:36:33;9.90;99.90
27439;DHT22;14887;51.252;7.470;2023-11-19T05:38:58;9.90;99.90
27439;DHT22;14887;51.252;7.470;2023-11-19T05:41:24;9.90;99.90
27439;DHT22;14887;51.252;7.470;2023-11-19T05:43:49;9.90;99.90
27439;DHT22;14887;51.252;7.470;2023-11-19T05:46:15;9.90;99.90
27439;DHT22;14887;51.252;7.470;2023-11-19T05:48:41;9.90;99.90
27439;DHT22;14887;51.252;7.470;2023-11-19T05:51:08;9.80;99.90
27439;DHT22;14887;51.252;7.470;2023-11-19T05:53:33;9.80;99.90
27439;DHT22;14887;51.252;7.470;2023-11-19T05:55:59;9.70;99.90
27439;DHT22;14887;51.252;7.470;2023-11-19T05:58:29;9.80;99.90
27439;DHT22;14887;51.252;7.470;2023-11-19T06:00:56;9.80;99.90
27439;DHT22;14887;51.252;7.470;2023-11-19T06:03:23;9.70;99.90
27439;DHT22;14887;51.252;7.470;2023-11-19T06:05:49;9.60;99.90
27439;DHT22;14887;51.252;7.470;2023-11-19T06:08:15;9.60;99.90
27439;DHT22;14887;51.252;7.470;2023-11-19T06:10:41;9.40;99.90
27439;DHT22;14887;51.252;7.470;2023-11-19T06:13:07;9.60;99.90
27439;DHT22;14887;51.252;7.470;2023-11-19T06:15:35;9.70;99.90
27439;DHT22;14887;51.252;7.470;2023-11-19T06:18:01;9.70;99.90
27439;DHT22;14887;51.252;7.470;2023-11-19T06:20:32;9.70;99.90
27439;DHT22;14887;51.252;7.470;2023-11-19T06:22:57;9.70;99.90
27439;DHT22;14887;51.252;7.470;2023-11-19T06:25:25;9.60;99.90
27439;DHT22;14887;51.252;7.470;2023-11-19T06:27:51;9.60;99.90
27439;DHT22;14887;51.252;7.470;2023-11-19T06:30:17;9.60;99.90
27439;DHT22;14887;51.252;7.470;2023-11-19T06:32:43;9.60;99.90
27439;DHT22;14887;51.252;7.470;2023-11-19T06:35:08;9.60;99.90
27439;DHT22;14887;51.252;7.470;2023-11-19T06:37:35;9.60;99.90
27439;DHT22;14887;51.252;7.470;2023-11-19T06:40:01;9.70;99.90
27439;DHT22;14887;51.252;7.470;2023-11-19T06:42:27;9.60;99.90
27439;DHT22;14887;51.252;7.470;2023-11-19T06:44:53;9.60;99.90
27439;DHT22;14887;51.252;7.470;2023-11-19T06:47:18;9.60;99.90
27439;DHT22;14887;51.252;7.470;2023-11-19T06:49:44;9.60;99.90
27439;DHT22;14887;51.252;7.470;2023-11-19T06:52:10;9.70;99.90
27439;DHT22;14887;51.252;7.470;2023-11-19T06:54:38;9.60;99.90
27439;DHT22;14887;51.252;7.470;2023-11-19T06:57:04;9.50;99.90
27439;DHT22;14887;51.252;7.470;2023-11-19T06:59:30;9.50;99.90
27439;DHT22;14887;51.252;7.470;2023-11-19T07:01:56;9.50;99.90
27439;DHT22;14887;51.252;7.470;2023-11-19T07:04:22;9.50;99.90
27439;DHT22;14887;51.252;7.470;2023-11-19T07:06:48;9.40;99.90
27439;DHT22;14887;51.252;7.470;2023-11-19T07:09:14;9.40;99.90
27439;DHT22;14887;51.252;7.470;2023-11-19T07:11:41;9.30;99.90
27439;DHT22;14887;51.252;7.470;2023-11-19T07:14:07;9.30;99.90
27439;DHT22;14887;51.252;7.470;2023-11-19T07:16:33;9.30;99.90
27439;DHT22;14887;51.252;7.470;2023-11-19T07:19:05;9.30;99.90
27439;DHT22;14887;51.252;7.470;2023-11-19T07:21:32;9.30;99.90
27439;DHT22;14887;51.252;7.470;2023-11-19T07:23:59;9.40;99.20
27439;DHT22;14887;51.252;7.470;2023-11-19T07:26:25;9.40;99.90
27439;DHT22;14887;51.252;7.470;2023-11-19T07:28:51;9.40;99.90
27439;DHT22;14887;51.252;7.470;2023-11-19T07:31:16;9.40;99.90
27439;DHT22;14887;51.252;7.470;2023-11-19T07:33:45;9.40;99.90
27439;DHT22;14887;51.252;7.470;2023-11-19T07:36:12;9.40;99.90
27439;DHT22;14887;51.252;7.470;2023-11-19T07:38:37;9.30;99.90
27439;DHT22;14887;51.252;7.470;2023-11-19T07:41:07;9.20;99.90
27439;DHT22;14887;51.252;7.470;2023-11-19T07:43:35;9.20;99.90
27439;DHT22;14887;51.252;7.470;2023-11-19T07:46:01;9.20;99.90
27439;DHT22;14887;51.252;7.470;2023-11-19T07:48:27;9.10;99.90
27439;DHT22;14887;51.252;7.470;2023-11-19T07:50:53;9.10;99.90
27439;DHT22;14887;51.252;7.470;2023-11-19T07:53:19;9.20;99.90
27439;DHT22;14887;51.252;7.470;2023-11-19T07:55:45;9.20;99.90
27439;DHT22;14887;51.252;7.470;2023-11-19T07:58:11;9.20;99.90
27439;DHT22;14887;51.252;7.470;2023-11-19T08:00:38;9.20;99.90
27439;DHT22;14887;51.252;7.470;2023-11-19T08:03:04;9.20;99.90
27439;DHT22;14887;51.252;7.470;2023-11-19T08:05:31;9.20;99.90
27439;DHT22;14887;51.252;7.470;2023-11-19T08:07:58;9.20;99.90
27439;DHT22;14887;51.252;7.470;2023-11-19T08:10:24;9.20;99.90
27439;DHT22;14887;51.252;7.470;2023-11-19T08:12:50;9.20;99.90
27439;DHT22;14887;51.252;7.470;2023-11-19T08:15:15;9.20;99.90
27439;DHT22;14887;51.252;7.470;2023-11-19T08:17:42;9.20;99.90
27439;DHT22;14887;51.252;7.470;2023-11-19T08:20:09;9.20;99.90
27439;DHT22;14887;51.252;7.470;2023-11-19T08:22:38;9.20;99.90
27439;DHT22;14887;51.252;7.470;2023-11-19T08:25:05;9.10;99.90
27439;DHT22;14887;51.252;7.470;2023-11-19T08:27:31;9.10;99.90
27439;DHT22;14887;51.252;7.470;2023-11-19T08:29:56;9.10;99.90
27439;DHT22;14887;51.252;7.470;2023-11-19T08:32:23;9.20;99.90
27439;DHT22;14887;51.252;7.470;2023-11-19T08:34:49;9.30;99.90
27439;DHT22;14887;51.252;7.470;2023-11-19T08:37:19;9.30;99.90
27439;DHT22;14887;51.252;7.470;2023-11-19T08:39:49;9.30;99.90
27439;DHT22;14887;51.252;7.470;2023-11-19T08:42:16;9.50;99.90
27439;DHT22;14887;51.252;7.470;2023-11-19T08:44:42;9.50;99.90
27439;DHT22;14887;51.252;7.470;2023-11-19T08:47:13;9.60;98.00
27439;DHT22;14887;51.252;7.470;2023-11-19T08:49:39;9.70;89.70
27439;DHT22;14887;51.252;7.470;2023-11-19T08:52:05;9.60;83.10
27439;DHT22;14887;51.252;7.470;2023-11-19T08:54:34;9.70;87.30
27439;DHT22;14887;51.252;7.470;2023-11-19T08:57:00;9.70;93.20
27439;DHT22;14887;51.252;7.470;2023-11-19T08:59:26;9.70;77.10
27439;DHT22;14887;51.252;7.470;2023-11-19T09:01:53;9.80;76.20
27439;DHT22;14887;51.252;7.470;2023-11-19T09:04:18;9.80;78.90
27439;DHT22;14887;51.252;7.470;2023-11-19T09:06:47;9.80;53.20
27439;DHT22;14887;51.252;7.470;2023-11-19T09:09:13;9.90;37.70
27439;DHT22;14887;51.252;7.470;2023-11-19T09:11:39;9.90;30.50
27439;DHT22;14887;51.252;7.470;2023-11-19T09:14:06;9.90;35.20
27439;DHT22;14887;51.252;7.470;2023-11-19T09:16:32;9.90;13.10
27439;DHT22;14887;51.252;7.470;2023-11-19T09:18:58;9.90;32.70
27439;DHT22;14887;51.252;7.470;2023-11-19T09:21:27;10.00;33.40
27439;DHT22;14887;51.252;7.470;2023-11-19T09:23:55;10.00;21.30
27439;DHT22;14887;51.252;7.470;2023-11-19T09:26:20;10.00;10.70
27439;DHT22;14887;51.252;7.470;2023-11-19T09:28:50;9.90;5.00
27439;DHT22;14887;51.252;7.470;2023-11-19T09:31:17;9.80;1.00
27439;DHT22;14887;51.252;7.470;2023-11-19T09:33:44;9.80;13.40
27439;DHT22;14887;51.252;7.470;2023-11-19T09:36:12;9.90;9.10
27439;DHT22;14887;51.252;7.470;2023-11-19T09:38:42;10.00;1.00
27439;DHT22;14887;51.252;7.470;2023-11-19T09:41:10;10.20;6.40
27439;DHT22;14887;51.252;7.470;2023-11-19T09:43:39;10.20;1.00
27439;DHT22;14887;51.252;7.470;2023-11-19T09:46:09;10.20;1.00
27439;DHT22;14887;51.252;7.470;2023-11-19T09:48:44;10.10;1.00
27439;DHT22;14887;51.252;7.470;2023-11-19T09:51:11;10.10;1.00
27439;DHT22;14887;51.252;7.470;2023-11-19T09:53:38;10.10;1.00
27439;DHT22;14887;51.252;7.470;2023-11-19T09:56:04;10.00;1.00
27439;DHT22;14887;51.252;7.470;2023-11-19T09:58:31;10.00;1.00
27439;DHT22;14887;51.252;7.470;2023-11-19T10:00:58;10.00;1.00
27439;DHT22;14887;51.252;7.470;2023-11-19T10:03:33;10.00;1.00
27439;DHT22;14887;51.252;7.470;2023-11-19T10:06:10;9.90;1.00
27439;DHT22;14887;51.252;7.470;2023-11-19T10:08:39;10.00;1.00
27439;DHT22;14887;51.252;7.470;2023-11-19T10:11:06;10.10;1.00
27439;DHT22;14887;51.252;7.470;2023-11-19T10:13:35;10.20;1.00
27439;DHT22;14887;51.252;7.470;2023-11-19T10:16:08;10.40;1.00
27439;DHT22;14887;51.252;7.470;2023-11-19T10:18:37;10.50;1.00
27439;DHT22;14887;51.252;7.470;2023-11-19T10:21:06;10.50;1.00
27439;DHT22;14887;51.252;7.470;2023-11-19T10:23:51;10.50;1.00
27439;DHT22;14887;51.252;7.470;2023-11-19T10:26:18;10.40;1.00
27439;DHT22;14887;51.252;7.470;2023-11-19T10:28:49;10.40;1.00
27439;DHT22;14887;51.252;7.470;2023-11-19T10:31:18;10.30;1.00
27439;DHT22;14887;51.252;7.470;2023-11-19T10:33:44;10.40;1.00
27439;DHT22;14887;51.252;7.470;2023-11-19T10:36:12;10.40;1.00
27439;DHT22;14887;51.252;7.470;2023-11-19T10:38:38;10.50;1.00
27439;DHT22;14887;51.252;7.470;2023-11-19T10:41:05;10.40;1.00
27439;DHT22;14887;51.252;7.470;2023-11-19T10:43:31;10.40;1.00
27439;DHT22;14887;51.252;7.470;2023-11-19T10:46:11;10.50;1.00
27439;DHT22;14887;51.252;7.470;2023-11-19T10:48:37;10.40;1.00
27439;DHT22;14887;51.252;7.470;2023-11-19T10:51:05;10.40;1.00
27439;DHT22;14887;51.252;7.470;2023-11-19T10:53:39;10.30;1.00
27439;DHT22;14887;51.252;7.470;2023-11-19T10:56:11;10.20;1.00
27439;DHT22;14887;51.252;7.470;2023-11-19T10:58:37;10.30;1.00
27439;DHT22;14887;51.252;7.470;2023-11-19T11:01:19;10.40;1.00
27439;DHT22;14887;51.252;7.470;2023-11-19T11:03:56;10.40;1.00
27439;DHT22;14887;51.252;7.470;2023-11-19T11:06:30;10.40;1.00
27439;DHT22;14887;51.252;7.470;2023-11-19T11:08:56;10.30;1.00
27439;DHT22;14887;51.252;7.470;2023-11-19T11:11:22;10.20;1.00
27439;DHT22;14887;51.252;7.470;2023-11-19T11:13:50;10.20;1.00
27439;DHT22;14887;51.252;7.470;2023-11-19T11:16:20;10.20;1.00
27439;DHT22;14887;51.252;7.470;2023-11-19T11:18:48;10.20;1.00
27439;DHT22;14887;51.252;7.470;2023-11-19T11:21:23;10.40;1.00
27439;DHT22;14887;51.252;7.470;2023-11-19T11:36:03;10.40;1.00
27439;DHT22;14887;51.252;7.470;2023-11-19T11:38:36;10.40;1.00
27439;DHT22;14887;51.252;7.470;2023-11-19T11:41:21;10.50;1.00
27439;DHT22;14887;51.252;7.470;2023-11-19T11:43:54;10.50;1.00
27439;DHT22;14887;51.252;7.470;2023-11-19T11:49:05;10.50;1.00
27439;DHT22;14887;51.252;7.470;2023-11-19T11:59:36;10.50;1.00
27439;DHT22;14887;51.252;7.470;2023-11-19T12:02:03;10.40;1.00
27439;DHT22;14887;51.252;7.470;2023-11-19T12:04:32;10.70;1.00
27439;DHT22;14887;51.252;7.470;2023-11-19T12:07:16;10.90;1.00
27439;DHT22;14887;51.252;7.470;2023-11-19T12:09:42;10.90;1.00
27439;DHT22;14887;51.252;7.470;2023-11-19T12:12:19;10.80;1.00
27439;DHT22;14887;51.252;7.470;2023-11-19T12:15:13;10.70;1.00
27439;DHT22;14887;51.252;7.470;2023-11-19T12:17:48;10.60;1.00
27439;DHT22;14887;51.252;7.470;2023-11-19T12:20:18;10.60;1.00
27439;DHT22;14887;51.252;7.470;2023-11-19T12:22:54;10.60;1.00
27439;DHT22;14887;51.252;7.470;2023-11-19T12:25:20;10.70;1.00
27439;DHT22;14887;51.252;7.470;2023-11-19T12:27:50;10.80;1.00
27439;DHT22;14887;51.252;7.470;2023-11-19T12:30:22;11.00;1.00
27439;DHT22;14887;51.252;7.470;2023-11-19T12:32:50;11.00;1.00
27439;DHT22;14887;51.252;7.470;2023-11-19T12:35:16;10.90;1.00
27439;DHT22;14887;51.252;7.470;2023-11-19T12:37:46;10.80;1.00
27439;DHT22;14887;51.252;7.470;2023-11-19T12:40:16;10.90;1.00
27439;DHT22;14887;51.252;7.470;2023-11-19T12:42:48;10.90;1.00
27439;DHT22;14887;51.252;7.470;2023-11-19T12:45:15;10.80;1.00
27439;DHT22;14887;51.252;7.470;2023-11-19T12:47:42;10.70;1.00
27439;DHT22;14887;51.252;7.470;2023-11-19T12:50:10;10.60;1.00
27439;DHT22;14887;51.252;7.470;2023-11-19T12:52:38;10.60;1.00
27439;DHT22;14887;51.252;7.470;2023-11-19T12:55:05;10.60;1.00
27439;DHT22;14887;51.252;7.470;2023-11-19T12:57:41;10.70;1.00
27439;DHT22;14887;51.252;7.470;2023-11-19T13:00:18;10.80;1.00
27439;DHT22;14887;51.252;7.470;2023-11-19T13:02:56;10.70;1.00
27439;DHT22;14887;51.252;7.470;2023-11-19T13:05:23;10.70;1.00
27439;DHT22;14887;51.252;7.470;2023-11-19T13:07:49;10.60;1.00
27439;DHT22;14887;51.252;7.470;2023-11-19T13:10:14;10.50;1.00
27439;DHT22;14887;51.252;7.470;2023-11-19T13:12:41;10.40;1.00
27439;DHT22;14887;51.252;7.470;2023-11-19T13:15:07;10.40;1.00
27439;DHT22;14887;51.252;7.470;2023-11-19T13:17:47;10.40;1.00
27439;DHT22;14887;51.252;7.470;2023-11-19T13:20:13;10.30;1.00
27439;DHT22;14887;51.252;7.470;2023-11-19T13:22:55;10.20;1.00
27439;DHT22;14887;51.252;7.470;2023-11-19T13:25:20;10.10;1.00
27439;DHT22;14887;51.252;7.470;2023-11-19T13:27:49;10.10;1.00
27439;DHT22;14887;51.252;7.470;2023-11-19T13:30:15;10.00;1.00
27439;DHT22;14887;51.252;7.470;2023-11-19T13:32:41;10.20;1.00
27439;DHT22;14887;51.252;7.470;2023-11-19T13:35:07;10.30;1.00
27439;DHT22;14887;51.252;7.470;2023-11-19T13:37:34;10.70;1.00
27439;DHT22;14887;51.252;7.470;2023-11-19T13:40:00;10.80;1.00
27439;DHT22;14887;51.252;7.470;2023-11-19T13:42:28;11.00;1.00
27439;DHT22;14887;51.252;7.470;2023-11-19T13:44:54;11.50;1.00
27439;DHT22;14887;51.252;7.470;2023-11-19T13:47:22;11.70;1.00
27439;DHT22;14887;51.252;7.470;2023-11-19T13:49:51;11.80;99.90
27439;DHT22;14887;51.252;7.470;2023-11-19T13:52:18;11.50;99.90
27439;DHT22;14887;51.252;7.470;2023-11-19T13:54:43;11.30;1.00
27439;DHT22;14887;51.252;7.470;2023-11-19T13:57:12;11.00;1.00
27439;DHT22;14887;51.252;7.470;2023-11-19T13:59:40;10.90;1.00
27439;DHT22;14887;51.252;7.470;2023-11-19T14:02:07;10.70;1.00
27439;DHT22;14887;51.252;7.470;2023-11-19T14:04:35;10.50;1.00
27439;DHT22;14887;51.252;7.470;2023-11-19T14:07:04;10.40;1.00
27439;DHT22;14887;51.252;7.470;2023-11-19T14:09:32;10.30;1.00
27439;DHT22;14887;51.252;7.470;2023-11-19T14:11:58;10.30;1.00
27439;DHT22;14887;51.252;7.470;2023-11-19T14:14:27;10.30;1.00
27439;DHT22;14887;51.252;7.470;2023-11-19T14:16:52;10.20;1.00
27439;DHT22;14887;51.252;7.470;2023-11-19T14:19:18;10.30;1.00
27439;DHT22;14887;51.252;7.470;2023-11-19T14:21:45;10.20;1.00
27439;DHT22;14887;51.252;7.470;2023-11-19T14:24:10;10.10;1.00
27439;DHT22;14887;51.252;7.470;2023-11-19T14:26:36;10.00;1.00
27439;DHT22;14887;51.252;7.470;2023-11-19T14:29:01;10.00;1.00
27439;DHT22;14887;51.252;7.470;2023-11-19T14:31:29;10.00;1.00
27439;DHT22;14887;51.252;7.470;2023-11-19T14:33:56;10.00;1.00
27439;DHT22;14887;51.252;7.470;2023-11-19T14:36:22;10.00;1.00
27439;DHT22;14887;51.252;7.470;2023-11-19T14:38:47;10.00;1.00
27439;DHT22;14887;51.252;7.470;2023-11-19T14:41:13;9.90;1.00
27439;DHT22;14887;51.252;7.470;2023-11-19T14:43:39;10.00;1.00
27439;DHT22;14887;51.252;7.470;2023-11-19T14:46:05;9.80;1.00
27439;DHT22;14887;51.252;7.470;2023-11-19T14:48:32;9.70;1.00
27439;DHT22;14887;51.252;7.470;2023-11-19T14:50:58;9.50;1.00
27439;DHT22;14887;51.252;7.470;2023-11-19T14:53:24;9.40;16.40
27439;DHT22;14887;51.252;7.470;2023-11-19T14:55:50;9.30;38.40
27439;DHT22;14887;51.252;7.470;2023-11-19T14:58:44;9.30;59.70
27439;DHT22;14887;51.252;7.470;2023-11-19T15:01:14;9.10;89.20
27439;DHT22;14887;51.252;7.470;2023-11-19T15:03:41;9.10;99.20
27439;DHT22;14887;51.252;7.470;2023-11-19T15:06:07;9.10;99.90
27439;DHT22;14887;51.252;7.470;2023-11-19T15:08:37;9.00;99.90
27439;DHT22;14887;51.252;7.470;2023-11-19T15:11:02;9.00;99.90
27439;DHT22;14887;51.252;7.470;2023-11-19T15:13:31;9.00;99.90
27439;DHT22;14887;51.252;7.470;2023-11-19T15:15:57;8.90;99.90
27439;DHT22;14887;51.252;7.470;2023-11-19T15:18:23;8.90;99.90
27439;DHT22;14887;51.252;7.470;2023-11-19T15:20:49;8.90;99.90
27439;DHT22;14887;51.252;7.470;2023-11-19T15:23:14;8.90;99.90
27439;DHT22;14887;51.252;7.470;2023-11-19T15:25:41;8.80;99.90
27439;DHT22;14887;51.252;7.470;2023-11-19T15:28:07;8.80;99.90
27439;DHT22;14887;51.252;7.470;2023-11-19T15:30:33;8.80;99.90
27439;DHT22;14887;51.252;7.470;2023-11-19T15:32:58;8.80;99.90
27439;DHT22;14887;51.252;7.470;2023-11-19T15:35:24;8.70;99.90
27439;DHT22;14887;51.252;7.470;2023-11-19T15:37:50;8.70;99.90
27439;DHT22;14887;51.252;7.470;2023-11-19T15:40:16;8.80;99.90
27439;DHT22;14887;51.252;7.470;2023-11-19T15:42:43;8.80;99.90
27439;DHT22;14887;51.252;7.470;2023-11-19T15:45:10;8.70;99.90
27439;DHT22;14887;51.252;7.470;2023-11-19T15:47:37;8.70;99.90
27439;DHT22;14887;51.252;7.470;2023-11-19T15:50:04;8.80;99.90
27439;DHT22;14887;51.252;7.470;2023-11-19T15:52:30;8.80;99.90
27439;DHT22;14887;51.252;7.470;2023-11-19T15:54:56;8.70;99.90
27439;DHT22;14887;51.252;7.470;2023-11-19T15:57:23;8.70;99.90
27439;DHT22;14887;51.252;7.470;2023-11-19T15:59:49;8.70;99.90
27439;DHT22;14887;51.252;7.470;2023-11-19T16:02:18;8.70;99.90
27439;DHT22;14887;51.252;7.470;2023-11-19T16:04:44;8.60;99.90
27439;DHT22;14887;51.252;7.470;2023-11-19T16:07:14;8.60;99.90
27439;DHT22;14887;51.252;7.470;2023-11-19T16:09:40;8.60;99.90
27439;DHT22;14887;51.252;7.470;2023-11-19T16:12:07;8.60;99.90